createdAt,value
2017-02-20T00:00:17.937Z,0
2017-02-20T00:01:18.636Z,0
2017-02-20T00:02:19.375Z,0
2017-02-20T00:03:20.055Z,0
2017-02-20T00:04:20.771Z,0
2017-02-20T00:05:21.447Z,0
2017-02-20T00:06:22.148Z,0
2017-02-20T00:07:22.845Z,0
2017-02-20T00:08:23.514Z,0
2017-02-20T00:09:24.242Z,0
2017-02-20T00:10:24.944Z,0
2017-02-20T00:11:25.659Z,0
2017-02-20T00:12:26.347Z,0
2017-02-20T00:13:27.061Z,0
2017-02-20T00:14:27.744Z,0
2017-02-20T00:15:28.443Z,0
2017-02-20T00:16:29.143Z,0
2017-02-20T00:17:29.819Z,0
2017-02-20T00:18:30.494Z,0
2017-02-20T00:19:31.202Z,0
2017-02-20T00:20:31.913Z,0
2017-02-20T00:21:32.612Z,0
2017-02-20T00:22:33.331Z,0
2017-02-20T00:23:34.055Z,0
2017-02-20T00:24:34.828Z,0
2017-02-20T00:25:35.531Z,0
2017-02-20T00:26:36.221Z,0
2017-02-20T00:27:36.900Z,0
2017-02-20T00:28:37.627Z,0
2017-02-20T00:29:38.329Z,0
2017-02-20T00:30:39.018Z,0
2017-02-20T00:31:39.746Z,0
2017-02-20T00:32:40.450Z,0
2017-02-20T00:33:41.138Z,0
2017-02-20T00:34:41.863Z,0
2017-02-20T00:35:42.560Z,0
2017-02-20T00:36:43.250Z,0
2017-02-20T00:37:43.957Z,0
2017-02-20T00:38:44.671Z,0
2017-02-20T00:39:45.395Z,0
2017-02-20T00:40:46.088Z,0
2017-02-20T00:41:46.801Z,0
2017-02-20T00:42:47.492Z,0
2017-02-20T00:43:48.225Z,0
2017-02-20T00:44:48.937Z,0
2017-02-20T00:45:49.617Z,0
2017-02-20T00:46:50.298Z,0
2017-02-20T00:47:51.033Z,0
2017-02-20T00:48:51.701Z,0
2017-02-20T00:49:52.439Z,0
2017-02-20T00:50:53.137Z,0
2017-02-20T00:51:53.856Z,0
2017-02-20T00:52:54.520Z,0
2017-02-20T00:53:55.223Z,0
2017-02-20T00:54:55.910Z,0
2017-02-20T00:55:56.607Z,0
2017-02-20T00:56:57.305Z,0
2017-02-20T00:57:57.995Z,0
2017-02-20T00:58:58.739Z,0
2017-02-20T00:59:59.436Z,0
2017-02-20T01:01:00.150Z,0
2017-02-20T01:02:00.837Z,0
2017-02-20T01:03:01.527Z,0
2017-02-20T01:04:02.249Z,0
2017-02-20T01:05:02.945Z,0
2017-02-20T01:06:03.611Z,0
2017-02-20T01:07:04.334Z,0
2017-02-20T01:08:05.011Z,0
2017-02-20T01:09:05.691Z,0
2017-02-20T01:10:06.452Z,0
2017-02-20T01:11:07.154Z,0
2017-02-20T01:12:07.864Z,0
2017-02-20T01:13:08.538Z,0
2017-02-20T01:14:09.222Z,0
2017-02-20T01:15:09.912Z,0
2017-02-20T01:16:10.600Z,0
2017-02-20T01:17:11.315Z,0
2017-02-20T01:18:12.023Z,0
2017-02-20T01:19:12.737Z,0
2017-02-20T01:20:13.492Z,0
2017-02-20T01:21:14.243Z,0
2017-02-20T01:22:14.994Z,0
2017-02-20T01:23:15.687Z,0
2017-02-20T01:24:16.383Z,0
2017-02-20T01:25:17.085Z,0
2017-02-20T01:26:17.782Z,0
2017-02-20T01:27:18.476Z,0
2017-02-20T01:28:19.160Z,0
2017-02-20T01:29:19.838Z,0
2017-02-20T01:30:20.522Z,0
2017-02-20T01:31:21.230Z,0
2017-02-20T01:32:21.931Z,0
2017-02-20T01:33:22.639Z,0
2017-02-20T01:34:23.338Z,0
2017-02-20T01:35:24.086Z,0
2017-02-20T01:36:24.778Z,0
2017-02-20T01:37:25.468Z,0
2017-02-20T01:38:26.181Z,0
2017-02-20T01:39:26.876Z,0
2017-02-20T01:40:27.548Z,0
2017-02-20T01:41:28.228Z,0
2017-02-20T01:42:28.920Z,0
2017-02-20T01:43:29.621Z,0
2017-02-20T01:44:30.368Z,0
2017-02-20T01:45:31.116Z,0
2017-02-20T01:46:31.783Z,0
2017-02-20T01:47:32.540Z,0
2017-02-20T01:48:33.221Z,0
2017-02-20T01:49:33.966Z,0
2017-02-20T01:50:34.667Z,0
2017-02-20T01:51:35.469Z,0
2017-02-20T01:52:36.218Z,0
2017-02-20T01:53:36.907Z,0
2017-02-20T01:54:37.602Z,0
2017-02-20T01:55:38.306Z,0
2017-02-20T01:56:39.029Z,0
2017-02-20T01:57:39.753Z,0
2017-02-20T01:58:40.486Z,0
2017-02-20T01:59:41.187Z,0
2017-02-20T02:00:41.880Z,0
2017-02-20T02:01:42.573Z,0
2017-02-20T02:02:43.275Z,0
2017-02-20T02:03:43.973Z,0
2017-02-20T02:04:44.690Z,0
2017-02-20T02:05:45.364Z,0
2017-02-20T02:06:48.596Z,0
2017-02-20T02:07:49.304Z,0
2017-02-20T02:08:49.990Z,0
2017-02-20T02:09:50.701Z,0
2017-02-20T02:10:51.433Z,0
2017-02-20T02:11:52.128Z,0
2017-02-20T02:12:52.852Z,0
2017-02-20T02:13:53.581Z,0
2017-02-20T02:14:54.272Z,0
2017-02-20T02:15:54.957Z,0
2017-02-20T02:16:55.665Z,0
2017-02-20T02:17:56.346Z,0
2017-02-20T02:18:57.046Z,0
2017-02-20T02:19:57.738Z,0
2017-02-20T02:20:58.487Z,0
2017-02-20T02:21:59.163Z,0
2017-02-20T02:22:59.870Z,0
2017-02-20T02:24:00.577Z,0
2017-02-20T02:25:01.276Z,0
2017-02-20T02:26:01.957Z,0
2017-02-20T02:27:02.662Z,0
2017-02-20T02:28:03.340Z,0
2017-02-20T02:29:04.018Z,0
2017-02-20T02:30:04.715Z,0
2017-02-20T02:31:05.409Z,0
2017-02-20T02:32:06.120Z,0
2017-02-20T02:33:06.826Z,0
2017-02-20T02:34:07.531Z,0
2017-02-20T02:35:08.222Z,0
2017-02-20T02:36:08.902Z,0
2017-02-20T02:37:09.596Z,0
2017-02-20T02:38:10.295Z,0
2017-02-20T02:39:10.987Z,0
2017-02-20T02:40:11.669Z,0
2017-02-20T02:41:12.425Z,0
2017-02-20T02:42:13.125Z,0
2017-02-20T02:43:13.820Z,0
2017-02-20T02:44:14.562Z,0
2017-02-20T02:45:15.258Z,0
2017-02-20T02:46:15.931Z,0
2017-02-20T02:47:16.648Z,0
2017-02-20T02:48:17.345Z,0
2017-02-20T02:49:18.020Z,0
2017-02-20T02:50:18.721Z,0
2017-02-20T02:51:19.405Z,0
2017-02-20T02:52:20.137Z,0
2017-02-20T02:53:20.835Z,0
2017-02-20T02:54:21.513Z,0
2017-02-20T02:55:22.181Z,0
2017-02-20T02:56:22.882Z,0
2017-02-20T02:57:23.571Z,0
2017-02-20T02:58:24.276Z,0
2017-02-20T02:59:24.993Z,0
2017-02-20T03:00:25.671Z,0
2017-02-20T03:01:26.369Z,0
2017-02-20T03:02:27.054Z,0
2017-02-20T03:03:27.768Z,0
2017-02-20T03:04:28.438Z,0
2017-02-20T03:05:29.119Z,0
2017-02-20T03:06:29.796Z,0
2017-02-20T03:07:30.472Z,0
2017-02-20T03:08:31.192Z,0
2017-02-20T03:09:31.907Z,0
2017-02-20T03:10:32.587Z,0
2017-02-20T03:11:33.315Z,0
2017-02-20T03:12:34.031Z,0
2017-02-20T03:13:34.713Z,0
2017-02-20T03:14:35.420Z,0
2017-02-20T03:15:36.099Z,0
2017-02-20T03:16:36.783Z,0
2017-02-20T03:17:37.492Z,0
2017-02-20T03:18:38.219Z,0
2017-02-20T03:19:38.908Z,0
2017-02-20T03:20:39.581Z,0
2017-02-20T03:21:40.285Z,0
2017-02-20T03:22:40.968Z,0
2017-02-20T03:23:41.657Z,0
2017-02-20T03:24:42.346Z,0
2017-02-20T03:25:43.029Z,0
2017-02-20T03:26:43.759Z,0
2017-02-20T03:27:44.466Z,0
2017-02-20T03:28:45.151Z,0
2017-02-20T03:29:45.837Z,0
2017-02-20T03:30:46.537Z,0
2017-02-20T03:31:47.221Z,0
2017-02-20T03:32:47.928Z,0
2017-02-20T03:33:48.620Z,0
2017-02-20T03:34:49.295Z,0
2017-02-20T03:35:50.005Z,0
2017-02-20T03:36:50.695Z,0
2017-02-20T03:37:51.399Z,0
2017-02-20T03:38:52.080Z,0
2017-02-20T03:39:52.772Z,0
2017-02-20T03:40:53.474Z,0
2017-02-20T03:41:54.176Z,0
2017-02-20T03:42:54.856Z,0
2017-02-20T03:43:55.547Z,0
2017-02-20T03:44:56.253Z,0
2017-02-20T03:45:56.933Z,0
2017-02-20T03:46:57.666Z,0
2017-02-20T03:47:58.333Z,0
2017-02-20T03:48:59.020Z,0
2017-02-20T03:49:59.713Z,0
2017-02-20T03:51:00.412Z,0
2017-02-20T03:52:01.102Z,0
2017-02-20T03:53:01.804Z,0
2017-02-20T03:54:02.518Z,0
2017-02-20T03:55:03.208Z,0
2017-02-20T03:56:03.896Z,0
2017-02-20T03:57:04.584Z,0
2017-02-20T03:58:05.277Z,0
2017-02-20T03:59:05.983Z,0
2017-02-20T04:00:06.659Z,0
2017-02-20T04:01:07.379Z,0
2017-02-20T04:02:08.099Z,0
2017-02-20T04:03:08.795Z,0
2017-02-20T04:04:09.481Z,0
2017-02-20T04:05:10.155Z,0
2017-02-20T04:06:10.868Z,0
2017-02-20T04:07:11.550Z,0
2017-02-20T04:08:12.270Z,0
2017-02-20T04:09:12.971Z,0
2017-02-20T04:10:13.652Z,0
2017-02-20T04:11:14.376Z,0
2017-02-20T04:12:15.072Z,0
2017-02-20T04:13:15.784Z,0
2017-02-20T04:14:16.485Z,0
2017-02-20T04:15:17.176Z,0
2017-02-20T04:16:17.861Z,0
2017-02-20T04:17:18.558Z,0
2017-02-20T04:18:19.249Z,0
2017-02-20T04:19:19.918Z,0
2017-02-20T04:20:20.595Z,0
2017-02-20T04:21:21.283Z,0
2017-02-20T04:22:21.954Z,0
2017-02-20T04:23:22.628Z,0
2017-02-20T04:24:23.318Z,0
2017-02-20T04:25:24.013Z,0
2017-02-20T04:26:24.748Z,0
2017-02-20T04:27:25.442Z,0
2017-02-20T04:28:26.126Z,0
2017-02-20T04:29:26.799Z,0
2017-02-20T04:30:27.505Z,0
2017-02-20T04:31:28.174Z,0
2017-02-20T04:32:28.883Z,0
2017-02-20T04:33:29.605Z,0
2017-02-20T04:34:30.312Z,0
2017-02-20T04:35:31.013Z,0
2017-02-20T04:36:31.703Z,0
2017-02-20T04:37:32.414Z,0
2017-02-20T04:38:33.127Z,0
2017-02-20T04:39:33.807Z,0
2017-02-20T04:40:34.514Z,0
2017-02-20T04:41:35.218Z,0
2017-02-20T04:42:35.898Z,0
2017-02-20T04:43:36.576Z,0
2017-02-20T04:44:37.275Z,0
2017-02-20T04:45:37.977Z,0
2017-02-20T04:46:38.670Z,0
2017-02-20T04:47:39.347Z,0
2017-02-20T04:48:40.078Z,0
2017-02-20T04:49:40.783Z,0
2017-02-20T04:50:41.475Z,0
2017-02-20T04:51:42.152Z,0
2017-02-20T04:52:42.836Z,0
2017-02-20T04:53:43.546Z,0
2017-02-20T04:54:44.247Z,0
2017-02-20T04:55:44.942Z,0
2017-02-20T04:56:45.634Z,0
2017-02-20T04:57:46.338Z,0
2017-02-20T04:58:47.017Z,0
2017-02-20T04:59:47.716Z,0
2017-02-20T05:00:48.409Z,0
2017-02-20T05:01:49.120Z,0
2017-02-20T05:02:49.833Z,0
2017-02-20T05:03:50.529Z,0
2017-02-20T05:04:51.224Z,0
2017-02-20T05:05:51.916Z,0
2017-02-20T05:06:52.600Z,0
2017-02-20T05:07:53.314Z,0
2017-02-20T05:08:54.016Z,0
2017-02-20T05:09:54.708Z,0
2017-02-20T05:10:55.410Z,0
2017-02-20T05:11:56.106Z,0
2017-02-20T05:12:56.774Z,0
2017-02-20T05:13:57.465Z,0
2017-02-20T05:14:58.157Z,0
2017-02-20T05:15:58.888Z,0
2017-02-20T05:16:59.630Z,0
2017-02-20T05:18:00.351Z,0
2017-02-20T05:19:01.064Z,0
2017-02-20T05:20:01.774Z,0
2017-02-20T05:21:02.473Z,0
2017-02-20T05:22:03.194Z,0
2017-02-20T05:23:03.885Z,0
2017-02-20T05:24:04.584Z,0
2017-02-20T05:25:05.301Z,0
2017-02-20T05:26:06.002Z,0
2017-02-20T05:27:06.721Z,0
2017-02-20T05:28:07.432Z,0
2017-02-20T05:29:08.118Z,0
2017-02-20T05:30:08.819Z,0
2017-02-20T05:31:09.494Z,0
2017-02-20T05:32:10.181Z,0
2017-02-20T05:33:10.913Z,0
2017-02-20T05:34:11.630Z,0
2017-02-20T05:35:12.345Z,0
2017-02-20T05:36:13.072Z,0
2017-02-20T05:37:13.795Z,0
2017-02-20T05:38:14.505Z,0
2017-02-20T05:39:15.193Z,0
2017-02-20T05:40:15.884Z,0
2017-02-20T05:41:16.586Z,0
2017-02-20T05:42:17.305Z,0
2017-02-20T05:43:17.998Z,0
2017-02-20T05:44:18.704Z,0
2017-02-20T05:45:19.426Z,0
2017-02-20T05:46:20.118Z,0
2017-02-20T05:47:20.817Z,0
2017-02-20T05:48:21.535Z,0
2017-02-20T05:49:22.241Z,0
2017-02-20T05:50:22.940Z,0
2017-02-20T05:51:23.657Z,0
2017-02-20T05:52:24.343Z,0
2017-02-20T05:53:25.054Z,0
2017-02-20T05:54:25.830Z,0
2017-02-20T05:55:26.551Z,0
2017-02-20T05:56:27.245Z,0
2017-02-20T05:57:27.948Z,0
2017-02-20T05:58:28.646Z,0
2017-02-20T05:59:29.371Z,0
2017-02-20T06:00:30.075Z,0
2017-02-20T06:01:30.798Z,0
2017-02-20T06:02:31.487Z,0
2017-02-20T06:03:32.198Z,0
2017-02-20T06:04:32.905Z,0
2017-02-20T06:05:33.635Z,0
2017-02-20T06:06:34.328Z,0
2017-02-20T06:07:35.053Z,0
2017-02-20T06:08:35.746Z,0
2017-02-20T06:09:36.445Z,0
2017-02-20T06:10:37.171Z,0
2017-02-20T06:11:37.921Z,0
2017-02-20T06:12:38.619Z,0
2017-02-20T06:13:39.312Z,0
2017-02-20T06:14:40.013Z,0
2017-02-20T06:15:40.711Z,0
2017-02-20T06:16:41.420Z,0
2017-02-20T06:17:42.128Z,0
2017-02-20T06:18:42.847Z,0
2017-02-20T06:19:43.533Z,0
2017-02-20T06:20:44.228Z,0
2017-02-20T06:21:44.951Z,0
2017-02-20T06:22:45.655Z,0
2017-02-20T06:23:46.378Z,0
2017-02-20T06:24:47.084Z,0
2017-02-20T06:25:47.819Z,0
2017-02-20T06:26:48.524Z,0
2017-02-20T06:27:49.211Z,0
2017-02-20T06:28:49.896Z,0
2017-02-20T06:29:50.633Z,0
2017-02-20T06:30:51.327Z,0
2017-02-20T06:31:52.033Z,0
2017-02-20T06:32:52.730Z,0
2017-02-20T06:33:53.433Z,0
2017-02-20T06:34:54.181Z,0
2017-02-20T06:35:54.887Z,0
2017-02-20T06:36:55.605Z,0
2017-02-20T06:37:56.302Z,5
2017-02-20T06:38:57.013Z,0
2017-02-20T06:39:57.729Z,0
2017-02-20T06:40:58.419Z,5
2017-02-20T06:41:59.125Z,5
2017-02-20T06:42:59.843Z,5
2017-02-20T06:44:00.521Z,5
2017-02-20T06:45:01.200Z,0
2017-02-20T06:46:01.893Z,5
2017-02-20T06:47:02.586Z,10
2017-02-20T06:48:03.328Z,10
2017-02-20T06:49:04.029Z,5
2017-02-20T06:50:04.719Z,5
2017-02-20T06:51:05.411Z,5
2017-02-20T06:52:06.108Z,5
2017-02-20T06:53:06.835Z,10
2017-02-20T06:54:07.508Z,10
2017-02-20T06:55:08.200Z,10
2017-02-20T06:56:08.906Z,10
2017-02-20T06:57:09.576Z,10
2017-02-20T06:58:10.275Z,10
2017-02-20T06:59:10.966Z,10
2017-02-20T07:00:11.648Z,10
2017-02-20T07:01:12.337Z,15
2017-02-20T07:02:13.000Z,15
2017-02-20T07:03:13.699Z,20
2017-02-20T07:04:14.376Z,15
2017-02-20T07:05:15.066Z,20
2017-02-20T07:06:15.774Z,20
2017-02-20T07:07:16.459Z,20
2017-02-20T07:08:17.126Z,20
2017-02-20T07:09:17.804Z,25
2017-02-20T07:10:18.518Z,25
2017-02-20T07:11:19.189Z,25
2017-02-20T07:12:19.869Z,20
2017-02-20T07:13:20.538Z,25
2017-02-20T07:14:21.260Z,25
2017-02-20T07:15:21.961Z,25
2017-02-20T07:16:22.652Z,25
2017-02-20T07:17:23.354Z,20
2017-02-20T07:18:24.089Z,25
2017-02-20T07:19:24.815Z,25
2017-02-20T07:20:25.502Z,25
2017-02-20T07:21:26.218Z,30
2017-02-20T07:22:26.912Z,35
2017-02-20T07:23:27.617Z,35
2017-02-20T07:24:28.299Z,40
2017-02-20T07:25:28.999Z,30
2017-02-20T07:26:29.705Z,35
2017-02-20T07:27:30.390Z,45
2017-02-20T07:28:31.092Z,40
2017-02-20T07:29:31.812Z,40
2017-02-20T07:30:32.523Z,45
2017-02-20T07:31:33.207Z,45
2017-02-20T07:32:33.921Z,40
2017-02-20T07:33:34.603Z,45
2017-02-20T07:34:35.314Z,45
2017-02-20T07:35:36.037Z,40
2017-02-20T07:36:36.750Z,40
2017-02-20T07:37:37.442Z,45
2017-02-20T07:38:38.148Z,50
2017-02-20T07:39:38.867Z,45
2017-02-20T07:40:39.551Z,45
2017-02-20T07:41:40.240Z,50
2017-02-20T07:42:40.953Z,45
2017-02-20T07:43:41.633Z,45
2017-02-20T07:44:42.375Z,50
2017-02-20T07:45:43.061Z,55
2017-02-20T07:46:43.755Z,50
2017-02-20T07:47:44.477Z,45
2017-02-20T07:48:45.219Z,50
2017-02-20T07:49:45.938Z,55
2017-02-20T07:50:46.633Z,45
2017-02-20T07:51:47.349Z,55
2017-02-20T07:52:48.076Z,55
2017-02-20T07:53:48.789Z,50
2017-02-20T07:54:49.494Z,50
2017-02-20T07:55:50.215Z,50
2017-02-20T07:56:50.938Z,55
2017-02-20T07:57:51.634Z,50
2017-02-20T07:58:52.344Z,50
2017-02-20T07:59:53.045Z,50
2017-02-20T08:00:53.743Z,55
2017-02-20T08:01:54.499Z,55
2017-02-20T08:02:55.192Z,50
2017-02-20T08:03:55.925Z,55
2017-02-20T08:04:56.655Z,55
2017-02-20T08:05:57.332Z,50
2017-02-20T08:06:58.040Z,70
2017-02-20T08:07:58.732Z,60
2017-02-20T08:08:59.437Z,60
2017-02-20T08:10:00.109Z,55
2017-02-20T08:11:00.828Z,70
2017-02-20T08:12:01.543Z,85
2017-02-20T08:13:02.224Z,80
2017-02-20T08:14:02.902Z,65
2017-02-20T08:15:03.679Z,70
2017-02-20T08:16:04.398Z,70
2017-02-20T08:17:05.114Z,75
2017-02-20T08:18:05.819Z,65
2017-02-20T08:19:06.512Z,60
2017-02-20T08:20:07.283Z,70
2017-02-20T08:21:07.968Z,75
2017-02-20T08:22:08.705Z,65
2017-02-20T08:23:09.407Z,70
2017-02-20T08:24:10.128Z,90
2017-02-20T08:25:10.864Z,80
2017-02-20T08:26:11.580Z,75
2017-02-20T08:27:12.310Z,65
2017-02-20T08:28:13.022Z,55
2017-02-20T08:29:13.704Z,50
2017-02-20T08:30:14.420Z,55
2017-02-20T08:31:15.162Z,60
2017-02-20T08:32:15.877Z,65
2017-02-20T08:33:16.572Z,65
2017-02-20T08:34:17.277Z,70
2017-02-20T08:35:17.991Z,65
2017-02-20T08:36:18.677Z,70
2017-02-20T08:37:19.380Z,60
2017-02-20T08:38:20.057Z,60
2017-02-20T08:39:20.742Z,50
2017-02-20T08:40:21.459Z,60
2017-02-20T08:41:22.156Z,65
2017-02-20T08:42:22.852Z,55
2017-02-20T08:43:23.556Z,55
2017-02-20T08:44:24.257Z,50
2017-02-20T08:45:24.965Z,60
2017-02-20T08:46:25.671Z,55
2017-02-20T08:47:26.370Z,55
2017-02-20T08:48:27.059Z,65
2017-02-20T08:49:27.783Z,60
2017-02-20T08:50:28.485Z,55
2017-02-20T08:51:29.206Z,55
2017-02-20T08:52:29.906Z,55
2017-02-20T08:53:30.617Z,55
2017-02-20T08:54:31.409Z,60
2017-02-20T08:55:32.093Z,70
2017-02-20T08:56:32.812Z,75
2017-02-20T08:57:33.534Z,70
2017-02-20T08:58:34.258Z,70
2017-02-20T08:59:34.978Z,70
2017-02-20T09:00:35.690Z,70
2017-02-20T09:01:36.387Z,75
2017-02-20T09:02:37.101Z,70
2017-02-20T09:03:37.790Z,70
2017-02-20T09:04:38.506Z,80
2017-02-20T09:05:39.184Z,80
2017-02-20T09:06:39.891Z,100
2017-02-20T09:07:40.575Z,80
2017-02-20T09:08:41.337Z,85
2017-02-20T09:09:42.032Z,100
2017-02-20T09:10:42.754Z,90
2017-02-20T09:11:43.477Z,105
2017-02-20T09:12:44.176Z,90
2017-02-20T09:13:44.891Z,100
2017-02-20T09:14:45.578Z,100
2017-02-20T09:15:46.256Z,100
2017-02-20T09:16:46.936Z,85
2017-02-20T09:17:47.634Z,115
2017-02-20T09:18:48.333Z,90
2017-02-20T09:19:49.033Z,120
2017-02-20T09:20:49.733Z,95
2017-02-20T09:21:50.430Z,70
2017-02-20T09:22:51.170Z,85
2017-02-20T09:23:51.857Z,95
2017-02-20T09:24:52.574Z,120
2017-02-20T09:25:53.294Z,120
2017-02-20T09:26:53.991Z,95
2017-02-20T09:27:54.671Z,95
2017-02-20T09:28:55.388Z,80
2017-02-20T09:29:56.105Z,85
2017-02-20T09:30:56.815Z,105
2017-02-20T09:31:57.499Z,95
2017-02-20T09:32:58.177Z,85
2017-02-20T09:33:58.874Z,70
2017-02-20T09:34:59.546Z,70
2017-02-20T09:36:00.265Z,75
2017-02-20T09:37:00.999Z,75
2017-02-20T09:38:01.715Z,85
2017-02-20T09:39:02.409Z,90
2017-02-20T09:40:03.118Z,80
2017-02-20T09:41:03.803Z,85
2017-02-20T09:42:04.531Z,75
2017-02-20T09:43:05.242Z,80
2017-02-20T09:44:05.973Z,85
2017-02-20T09:45:06.696Z,95
2017-02-20T09:46:07.411Z,110
2017-02-20T09:47:08.115Z,105
2017-02-20T09:48:08.813Z,110
2017-02-20T09:49:09.524Z,90
2017-02-20T09:50:10.210Z,110
2017-02-20T09:51:10.918Z,110
2017-02-20T09:52:11.634Z,95
2017-02-20T09:53:12.354Z,80
2017-02-20T09:54:13.043Z,80
2017-02-20T09:55:13.767Z,95
2017-02-20T09:56:14.512Z,90
2017-02-20T09:57:15.219Z,75
2017-02-20T09:58:15.943Z,70
2017-02-20T09:59:16.625Z,70
2017-02-20T10:00:17.349Z,75
2017-02-20T10:01:18.022Z,70
2017-02-20T10:02:18.707Z,75
2017-02-20T10:03:19.420Z,85
2017-02-20T10:04:20.140Z,85
2017-02-20T10:05:20.845Z,85
2017-02-20T10:06:21.604Z,75
2017-02-20T10:07:22.295Z,85
2017-02-20T10:08:22.979Z,80
2017-02-20T10:09:23.687Z,100
2017-02-20T10:10:24.381Z,120
2017-02-20T10:11:25.099Z,120
2017-02-20T10:12:25.813Z,90
2017-02-20T10:13:26.549Z,110
2017-02-20T10:14:27.239Z,125
2017-02-20T10:15:27.928Z,125
2017-02-20T10:16:28.609Z,115
2017-02-20T10:17:29.290Z,110
2017-02-20T10:18:29.991Z,100
2017-02-20T10:19:30.722Z,120
2017-02-20T10:20:31.432Z,110
2017-02-20T10:21:32.125Z,100
2017-02-20T10:22:32.803Z,105
2017-02-20T10:23:33.535Z,95
2017-02-20T10:24:34.256Z,100
2017-02-20T10:25:34.918Z,100
2017-02-20T10:26:35.621Z,120
2017-02-20T10:27:36.318Z,110
2017-02-20T10:28:37.025Z,85
2017-02-20T10:29:37.749Z,110
2017-02-20T10:30:38.462Z,90
2017-02-20T10:31:39.142Z,95
2017-02-20T10:32:39.822Z,90
2017-02-20T10:33:40.518Z,85
2017-02-20T10:34:41.212Z,95
2017-02-20T10:35:41.888Z,85
2017-02-20T10:36:42.612Z,95
2017-02-20T10:37:43.368Z,90
2017-02-20T10:38:44.082Z,95
2017-02-20T10:39:44.787Z,100
2017-02-20T10:40:45.476Z,95
2017-02-20T10:41:46.187Z,90
2017-02-20T10:42:46.879Z,90
2017-02-20T10:43:47.576Z,105
2017-02-20T10:44:48.296Z,95
2017-02-20T10:45:49.005Z,100
2017-02-20T10:46:49.707Z,100
2017-02-20T10:47:50.413Z,100
2017-02-20T10:48:51.138Z,100
2017-02-20T10:49:51.835Z,105
2017-02-20T10:50:52.553Z,120
2017-02-20T10:51:53.300Z,115
2017-02-20T10:52:53.980Z,125
2017-02-20T10:53:54.741Z,110
2017-02-20T10:54:55.443Z,110
2017-02-20T10:55:56.160Z,120
2017-02-20T10:56:56.871Z,105
2017-02-20T10:57:57.590Z,105
2017-02-20T10:58:58.284Z,110
2017-02-20T10:59:58.996Z,90
2017-02-20T11:00:59.684Z,90
2017-02-20T11:02:00.383Z,90
2017-02-20T11:03:01.065Z,80
2017-02-20T11:04:01.743Z,100
2017-02-20T11:05:02.451Z,95
2017-02-20T11:06:03.133Z,90
2017-02-20T11:07:03.836Z,85
2017-02-20T11:08:04.528Z,85
2017-02-20T11:09:05.265Z,95
2017-02-20T11:10:05.982Z,90
2017-02-20T11:11:06.631Z,110
2017-02-20T11:12:07.347Z,110
2017-02-20T11:13:08.134Z,105
2017-02-20T11:14:08.915Z,100
2017-02-20T11:15:09.583Z,105
2017-02-20T11:16:10.265Z,85
2017-02-20T11:17:10.965Z,100
2017-02-20T11:18:11.669Z,90
2017-02-20T11:19:12.392Z,105
2017-02-20T11:20:13.201Z,105
2017-02-20T11:21:13.929Z,110
2017-02-20T11:22:14.652Z,105
2017-02-20T11:23:15.379Z,120
2017-02-20T11:24:16.104Z,110
2017-02-20T11:25:16.803Z,115
2017-02-20T11:26:17.539Z,115
2017-02-20T11:27:18.297Z,120
2017-02-20T11:28:19.001Z,120
2017-02-20T11:29:19.722Z,120
2017-02-20T11:30:20.406Z,115
2017-02-20T11:31:21.165Z,135
2017-02-20T11:32:21.891Z,105
2017-02-20T11:33:22.619Z,115
2017-02-20T11:34:23.369Z,105
2017-02-20T11:35:24.081Z,110
2017-02-20T11:36:24.778Z,100
2017-02-20T11:37:25.507Z,100
2017-02-20T11:38:26.218Z,90
2017-02-20T11:39:26.976Z,90
2017-02-20T11:40:27.675Z,85
2017-02-20T11:41:28.453Z,90
2017-02-20T11:42:29.159Z,80
2017-02-20T11:43:29.878Z,80
2017-02-20T11:44:30.600Z,95
2017-02-20T11:45:31.291Z,85
2017-02-20T11:46:31.998Z,95
2017-02-20T11:47:32.694Z,90
2017-02-20T11:48:33.388Z,85
2017-02-20T11:49:34.084Z,80
2017-02-20T11:50:34.811Z,85
2017-02-20T11:51:35.519Z,90
2017-02-20T11:52:36.235Z,90
2017-02-20T11:53:36.954Z,90
2017-02-20T11:54:37.643Z,95
2017-02-20T11:55:38.356Z,100
2017-02-20T11:56:39.067Z,110
2017-02-20T11:57:39.789Z,100
2017-02-20T11:58:40.523Z,110
2017-02-20T11:59:41.198Z,105
2017-02-20T12:00:41.901Z,110
2017-02-20T12:01:42.585Z,105
2017-02-20T12:02:43.260Z,110
2017-02-20T12:03:43.953Z,115
2017-02-20T12:04:44.675Z,115
2017-02-20T12:05:45.358Z,115
2017-02-20T12:06:46.058Z,115
2017-02-20T12:07:46.742Z,115
2017-02-20T12:08:47.450Z,115
2017-02-20T12:09:48.160Z,110
2017-02-20T12:10:48.862Z,115
2017-02-20T12:11:49.557Z,110
2017-02-20T12:12:50.285Z,105
2017-02-20T12:13:50.974Z,110
2017-02-20T12:14:51.680Z,105
2017-02-20T12:15:52.370Z,95
2017-02-20T12:16:53.073Z,85
2017-02-20T12:17:53.796Z,85
2017-02-20T12:18:54.493Z,95
2017-02-20T12:19:55.213Z,105
2017-02-20T12:20:55.904Z,115
2017-02-20T12:21:56.619Z,115
2017-02-20T12:22:57.334Z,110
2017-02-20T12:23:58.064Z,100
2017-02-20T12:24:58.787Z,100
2017-02-20T12:25:59.524Z,105
2017-02-20T12:27:00.237Z,100
2017-02-20T12:28:00.946Z,110
2017-02-20T12:29:01.662Z,100
2017-02-20T12:30:02.358Z,120
2017-02-20T12:31:03.085Z,100
2017-02-20T12:32:03.797Z,90
2017-02-20T12:33:04.493Z,110
2017-02-20T12:34:05.221Z,110
2017-02-20T12:35:05.927Z,100
2017-02-20T12:36:06.655Z,100
2017-02-20T12:37:07.361Z,105
2017-02-20T12:38:08.076Z,105
2017-02-20T12:39:08.805Z,90
2017-02-20T12:40:09.501Z,85
2017-02-20T12:41:10.212Z,95
2017-02-20T12:42:10.918Z,90
2017-02-20T12:43:11.645Z,105
2017-02-20T12:44:12.343Z,90
2017-02-20T12:45:13.038Z,95
2017-02-20T12:46:13.753Z,90
2017-02-20T12:47:14.432Z,85
2017-02-20T12:48:15.138Z,85
2017-02-20T12:49:15.832Z,95
2017-02-20T12:50:16.567Z,95
2017-02-20T12:51:17.279Z,90
2017-02-20T12:52:18.018Z,90
2017-02-20T12:53:18.726Z,85
2017-02-20T12:54:19.442Z,80
2017-02-20T12:55:20.150Z,85
2017-02-20T12:56:20.843Z,90
2017-02-20T12:57:21.559Z,85
2017-02-20T12:58:22.244Z,90
2017-02-20T12:59:22.961Z,100
2017-02-20T13:00:23.648Z,90
2017-02-20T13:01:24.354Z,85
2017-02-20T13:02:25.043Z,85
2017-02-20T13:03:25.756Z,85
2017-02-20T13:04:26.450Z,75
2017-02-20T13:05:27.154Z,80
2017-02-20T13:06:27.873Z,80
2017-02-20T13:07:28.572Z,75
2017-02-20T13:08:29.272Z,70
2017-02-20T13:09:30.007Z,70
2017-02-20T13:10:30.716Z,75
2017-02-20T13:11:31.402Z,70
2017-02-20T13:12:32.083Z,75
2017-02-20T13:13:32.789Z,70
2017-02-20T13:14:33.484Z,75
2017-02-20T13:15:34.189Z,75
2017-02-20T13:16:34.907Z,70
2017-02-20T13:17:35.598Z,70
2017-02-20T13:18:36.311Z,75
2017-02-20T13:19:37.019Z,75
2017-02-20T13:20:37.719Z,95
2017-02-20T13:21:38.430Z,95
2017-02-20T13:22:39.138Z,95
2017-02-20T13:23:39.834Z,90
2017-02-20T13:24:40.548Z,85
2017-02-20T13:25:41.242Z,85
2017-02-20T13:26:41.942Z,100
2017-02-20T13:27:42.651Z,105
2017-02-20T13:28:43.347Z,115
2017-02-20T13:29:44.061Z,115
2017-02-20T13:30:44.785Z,105
2017-02-20T13:31:45.529Z,105
2017-02-20T13:32:46.241Z,100
2017-02-20T13:33:47.000Z,100
2017-02-20T13:34:47.713Z,90
2017-02-20T13:35:48.460Z,95
2017-02-20T13:36:49.207Z,85
2017-02-20T13:37:49.894Z,95
2017-02-20T13:38:50.623Z,90
2017-02-20T13:39:51.344Z,90
2017-02-20T13:40:52.035Z,90
2017-02-20T13:41:52.732Z,100
2017-02-20T13:42:53.446Z,105
2017-02-20T13:43:54.133Z,100
2017-02-20T13:44:54.825Z,100
2017-02-20T13:45:55.550Z,80
2017-02-20T13:46:56.268Z,90
2017-02-20T13:47:56.981Z,105
2017-02-20T13:48:57.726Z,95
2017-02-20T13:49:58.442Z,100
2017-02-20T13:50:59.175Z,115
2017-02-20T13:51:59.896Z,110
2017-02-20T13:53:00.587Z,105
2017-02-20T13:54:01.281Z,95
2017-02-20T13:55:02.010Z,105
2017-02-20T13:56:02.709Z,95
2017-02-20T13:57:03.416Z,105
2017-02-20T13:58:04.123Z,95
2017-02-20T13:59:04.830Z,80
2017-02-20T14:00:05.562Z,100
2017-02-20T14:01:06.293Z,100
2017-02-20T14:02:07.007Z,85
2017-02-20T14:03:07.722Z,75
2017-02-20T14:04:08.497Z,80
2017-02-20T14:05:09.215Z,60
2017-02-20T14:06:09.933Z,80
2017-02-20T14:07:10.663Z,65
2017-02-20T14:08:11.378Z,65
2017-02-20T14:09:12.072Z,65
2017-02-20T14:10:12.788Z,65
2017-02-20T14:11:13.501Z,60
2017-02-20T14:12:14.212Z,65
2017-02-20T14:13:14.924Z,70
2017-02-20T14:14:15.627Z,75
2017-02-20T14:15:16.342Z,85
2017-02-20T14:16:17.067Z,90
2017-02-20T14:17:17.776Z,95
2017-02-20T14:18:18.472Z,100
2017-02-20T14:19:19.180Z,110
2017-02-20T14:20:19.877Z,105
2017-02-20T14:21:20.571Z,105
2017-02-20T14:22:21.268Z,90
2017-02-20T14:23:21.977Z,105
2017-02-20T14:24:22.705Z,110
2017-02-20T14:25:23.401Z,105
2017-02-20T14:26:24.091Z,105
2017-02-20T14:27:24.797Z,95
2017-02-20T14:28:25.494Z,125
2017-02-20T14:29:26.220Z,105
2017-02-20T14:30:26.933Z,105
2017-02-20T14:31:27.659Z,105
2017-02-20T14:32:28.358Z,105
2017-02-20T14:33:29.055Z,115
2017-02-20T14:34:29.748Z,110